Time;durP1;ratioP1;P1;durP2;ratioP2;P2;SDS_P1;SDS_P2;PMS_P1;PMS_P2;Temp;Humidity;BMP_temperature;BMP_pressure;BME280_temperature;BME280_humidity;BME280_pressure;Samples;Min_cycle;Max_cycle;Signal;HPM_P1;HPM_P2
2023/03/21 00:01:53;;;;;;;37.40;16.50;;;;;;;-0.75;100.00;100843.39;105257;1296;25459;-72
2023/03/21 00:04:23;;;;;;;33.90;15.90;;;;;;;-0.73;100.00;100840.64;105638;1296;26735;-71
2023/03/21 00:06:52;;;;;;;40.00;16.90;;;;;;;-0.73;100.00;100838.30;105630;1296;25272;-72
2023/03/21 00:09:22;;;;;;;36.70;16.60;;;;;;;-0.73;100.00;100835.13;104864;1296;1002966;-72
2023/03/21 00:11:52;;;;;;;30.50;15.30;;;;;;;-0.74;100.00;100836.94;105630;1296;23830;-74
2023/03/21 00:14:22;;;;;;;38.80;16.70;;;;;;;-0.74;100.00;100835.54;105614;1296;26531;-73
2023/03/21 00:16:51;;;;;;;37.30;15.60;;;;;;;-0.77;100.00;100831.23;105600;1296;23024;-73
2023/03/21 00:19:25;;;;;;;37.40;16.70;;;;;;;-0.81;100.00;100830.19;105614;1296;25475;-71
2023/03/21 00:21:54;;;;;;;36.30;16.60;;;;;;;-0.83;100.00;100832.80;105636;1296;25436;-72
2023/03/21 00:24:43;;;;;;;40.70;17.50;;;;;;;-0.83;100.00;100826.97;105609;1296;22670;-72
2023/03/21 00:27:12;;;;;;;32.50;15.90;;;;;;;-0.81;100.00;100831.30;105621;1296;25319;-72
2023/03/21 00:30:01;;;;;;;39.70;16.80;;;;;;;-0.82;100.00;100824.76;105608;1296;25574;-71
2023/03/21 00:32:30;;;;;;;43.10;18.80;;;;;;;-0.81;100.00;100835.34;105689;1296;25480;-72
2023/03/21 00:35:07;;;;;;;41.00;16.50;;;;;;;-0.79;100.00;100831.52;105615;1296;24237;-71
2023/03/21 00:38:01;;;;;;;51.10;22.00;;;;;;;-0.75;100.00;100830.28;105628;1296;25379;-72
2023/03/21 00:40:33;;;;;;;45.90;18.60;;;;;;;-0.76;100.00;100833.52;105495;1296;25574;-72
2023/03/21 00:43:10;;;;;;;57.50;23.80;;;;;;;-0.77;100.00;100827.73;105622;1296;23126;-72
2023/03/21 00:45:40;;;;;;;70.30;25.70;;;;;;;-0.81;100.00;100823.69;105678;1296;26531;-73
2023/03/21 00:48:09;;;;;;;56.00;23.50;;;;;;;-0.88;100.00;100827.21;104719;1296;1002946;-73
2023/03/21 00:50:44;;;;;;;78.70;27.30;;;;;;;-0.95;100.00;100826.31;105467;1296;23859;-72
2023/03/21 00:53:14;;;;;;;58.50;25.60;;;;;;;-0.99;100.00;100826.20;105491;1296;26764;-71
2023/03/21 00:55:42;;;;;;;75.10;30.60;;;;;;;-1.03;100.00;100821.64;105225;1296;25346;-74
2023/03/21 00:58:11;;;;;;;67.00;27.60;;;;;;;-1.07;100.00;100818.45;105137;1296;26534;-74
2023/03/21 01:00:40;;;;;;;62.60;24.70;;;;;;;-1.10;100.00;100814.20;104548;1296;1018924;-74
2023/03/21 01:03:11;;;;;;;66.70;24.50;;;;;;;-1.12;100.00;100809.54;105062;1296;1003789;-71
2023/03/21 01:06:05;;;;;;;53.40;21.90;;;;;;;-1.16;100.00;100798.87;105463;1296;25324;-73
2023/03/21 01:08:37;;;;;;;61.70;24.10;;;;;;;-1.18;100.00;100800.40;105228;1296;24596;-72
2023/03/21 01:11:25;;;;;;;59.60;24.30;;;;;;;-1.19;100.00;100796.91;105616;1296;25431;-74
2023/03/21 01:13:53;;;;;;;60.80;24.50;;;;;;;-1.20;100.00;100794.85;105641;1296;22543;-71
2023/03/21 01:16:35;;;;;;;62.40;25.10;;;;;;;-1.21;100.00;100788.89;105458;1296;23150;-72
2023/03/21 01:19:04;;;;;;;59.00;25.60;;;;;;;-1.22;100.00;100785.55;104736;1296;1003470;-72
2023/03/21 01:21:39;;;;;;;65.20;25.50;;;;;;;-1.22;100.00;100786.48;105530;1296;25403;-72
2023/03/21 01:24:08;;;;;;;68.10;26.70;;;;;;;-1.22;100.00;100786.48;105586;1296;26641;-72
2023/03/21 01:26:37;;;;;;;56.40;24.30;;;;;;;-1.23;100.00;100789.88;105475;1296;25328;-72
2023/03/21 01:29:06;;;;;;;52.00;24.10;;;;;;;-1.24;100.00;100784.80;105498;1296;25395;-72
2023/03/21 01:31:35;;;;;;;57.90;23.40;;;;;;;-1.24;100.00;100785.31;105439;1296;24109;-72
2023/03/21 01:34:04;;;;;;;46.60;21.80;;;;;;;-1.22;100.00;100782.94;105642;1296;25538;-71
2023/03/21 01:36:32;;;;;;;40.50;20.50;;;;;;;-1.19;100.00;100781.90;105625;1296;22549;-72
2023/03/21 01:39:05;;;;;;;44.30;19.70;;;;;;;-1.15;100.00;100781.14;105218;1296;24226;-73
2023/03/21 01:41:39;;;;;;;36.40;16.90;;;;;;;-1.10;100.00;100781.78;105489;1296;25382;-72
2023/03/21 01:44:27;;;;;;;34.80;17.00;;;;;;;-1.06;100.00;100773.10;105623;1296;25381;-72
2023/03/21 01:46:56;;;;;;;33.10;16.50;;;;;;;-1.05;100.00;100773.55;105479;1296;25277;-74
2023/03/21 01:49:49;;;;;;;29.00;14.20;;;;;;;-1.06;100.00;100764.05;104918;1296;1002412;-72
2023/03/21 01:52:36;;;;;;;25.60;12.70;;;;;;;-1.06;100.00;100765.84;106847;1296;22547;-71
2023/03/21 01:55:14;;;;;;;28.70;13.60;;;;;;;-1.05;100.00;100762.94;108155;1296;25624;-73
2023/03/21 01:57:57;;;;;;;28.30;13.50;;;;;;;-1.02;100.00;100760.66;104535;1296;1002390;-73
2023/03/21 02:01:07;;;;;;;25.30;12.10;;;;;;;-0.99;100.00;100758.56;104209;1296;1002875;-72
2023/03/21 02:03:49;;;;;;;28.60;13.60;;;;;;;-0.96;100.00;100760.73;105471;1296;24229;-73
2023/03/21 02:06:49;;;;;;;25.10;12.10;;;;;;;-0.93;100.00;100756.16;105644;1296;26664;-71
2023/03/21 02:09:36;;;;;;;29.30;14.10;;;;;;;-0.91;100.00;100754.23;105512;1296;25452;-71
2023/03/21 02:12:07;;;;;;;30.70;14.10;;;;;;;-0.88;100.00;100757.64;105490;1296;22565;-72
2023/03/21 02:14:38;;;;;;;28.20;12.90;;;;;;;-0.85;100.00;100761.22;105513;1296;25283;-71
2023/03/21 02:17:19;;;;;;;25.50;12.50;;;;;;;-0.84;100.00;100758.17;105646;1296;23808;-72
2023/03/21 02:20:20;;;;;;;21.30;10.50;;;;;;;-0.82;100.00;100756.65;105519;1295;22531;-72
2023/03/21 02:23:05;;;;;;;20.70;10.00;;;;;;;-0.81;100.00;100753.74;105661;1296;22543;-72
2023/03/21 02:25:45;;;;;;;20.60;10.60;;;;;;;-0.79;100.00;100755.23;105508;1296;23101;-73
2023/03/21 02:28:19;;;;;;;24.10;11.10;;;;;;;-0.77;100.00;100764.86;105619;1296;22671;-74
2023/03/21 02:31:00;;;;;;;22.60;11.80;;;;;;;-0.75;100.00;100762.13;105596;1296;22545;-73
2023/03/21 02:33:45;;;;;;;22.40;10.60;;;;;;;-0.74;100.00;100759.92;105489;1296;26567;-72
2023/03/21 02:36:25;;;;;;;21.10;11.50;;;;;;;-0.74;100.00;100763.13;105492;1296;25363;-73
2023/03/21 02:39:25;;;;;;;19.80;10.20;;;;;;;-0.73;100.00;100766.26;105534;1296;23004;-71
2023/03/21 02:42:20;;;;;;;25.30;11.80;;;;;;;-0.73;100.00;100762.88;104917;1296;1002908;-74
2023/03/21 02:45:15;;;;;;;27.20;13.60;;;;;;;-0.72;100.00;100763.92;105671;1296;22643;-71
2023/03/21 02:47:52;;;;;;;22.70;11.50;;;;;;;-0.69;100.00;100761.61;104781;1296;1002502;-72
2023/03/21 02:50:34;;;;;;;24.80;11.00;;;;;;;-0.67;100.00;100762.05;105515;1296;22546;-72
2023/03/21 02:53:04;;;;;;;25.10;11.30;;;;;;;-0.65;100.00;100764.38;105409;1296;22545;-73
2023/03/21 02:55:34;;;;;;;23.40;11.30;;;;;;;-0.63;100.00;100764.86;104947;1296;1002892;-71
2023/03/21 02:58:07;;;;;;;26.90;12.60;;;;;;;-0.63;100.00;100765.33;105475;1296;26603;-72
2023/03/21 03:00:55;;;;;;;26.70;12.10;;;;;;;-0.65;100.00;100758.71;105613;1296;22588;-73
2023/03/21 03:03:34;;;;;;;25.40;12.10;;;;;;;-0.69;100.00;100753.81;105242;1296;25416;-72
2023/03/21 03:06:22;;;;;;;27.70;13.50;;;;;;;-0.70;100.00;100756.02;105607;1296;26919;-71
2023/03/21 03:09:23;;;;;;;25.40;11.80;;;;;;;-0.71;100.00;100753.92;104808;1296;1003500;-72
2023/03/21 03:11:57;;;;;;;26.40;13.10;;;;;;;-0.72;100.00;100750.24;105632;1296;22545;-71
2023/03/21 03:15:06;;;;;;;25.60;12.70;;;;;;;-0.73;100.00;100758.80;105616;1296;25338;-72
2023/03/21 03:17:38;;;;;;;27.30;12.80;;;;;;;-0.73;100.00;100747.83;105638;1296;26659;-73
2023/03/21 03:20:25;;;;;;;24.30;12.30;;;;;;;-0.72;100.00;100752.90;105201;1297;25238;-72
2023/03/21 03:22:57;;;;;;;22.30;11.50;;;;;;;-0.71;100.00;100749.30;104805;1298;1003511;-72
2023/03/21 03:25:30;;;;;;;25.30;12.40;;;;;;;-0.71;100.00;100750.38;105470;1298;25471;-72
2023/03/21 03:28:10;;;;;;;21.20;10.80;;;;;;;-0.70;100.00;100750.16;105544;1297;22560;-72
2023/03/21 03:30:39;;;;;;;22.00;10.00;;;;;;;-0.66;100.00;100756.48;105214;1297;25274;-71
2023/03/21 03:33:22;;;;;;;22.40;10.20;;;;;;;-0.61;100.00;100754.80;105526;1297;25556;-71
2023/03/21 03:35:51;;;;;;;19.40;10.30;;;;;;;-0.58;100.00;100756.22;105182;1297;25381;-72
2023/03/21 03:38:34;;;;;;;20.10;10.40;;;;;;;-0.54;100.00;100750.54;105230;1297;25617;-72
2023/03/21 03:41:16;;;;;;;21.70;10.70;;;;;;;-0.50;100.00;100750.31;105195;1297;26108;-71
2023/03/21 03:43:55;;;;;;;21.00;9.80;;;;;;;-0.45;100.00;100750.05;105539;1298;26522;-72
2023/03/21 03:46:35;;;;;;;20.50;9.90;;;;;;;-0.39;100.00;100749.58;105517;1298;25265;-71
2023/03/21 03:49:07;;;;;;;20.00;9.70;;;;;;;-0.34;100.00;100750.35;105183;1297;25334;-72
2023/03/21 03:51:41;;;;;;;21.00;10.30;;;;;;;-0.28;100.00;100752.65;105205;1298;25443;-72
2023/03/21 03:54:38;;;;;;;21.90;10.10;;;;;;;-0.22;100.00;100747.73;105530;1298;25328;-72
2023/03/21 03:57:07;;;;;;;24.60;11.20;;;;;;;-0.17;100.00;100752.42;105551;1298;25432;-72
2023/03/21 03:59:36;;;;;;;24.60;11.40;;;;;;;-0.12;100.00;100756.39;105211;1298;25392;-72
2023/03/21 04:02:19;;;;;;;23.10;12.00;;;;;;;-0.07;100.00;100749.42;105192;1297;22555;-77
2023/03/21 04:04:51;;;;;;;26.90;12.70;;;;;;;-0.03;100.00;100753.56;105209;1297;22533;-71
2023/03/21 04:07:21;;;;;;;29.30;13.90;;;;;;;0.03;100.00;100752.55;105577;1297;24237;-72
2023/03/21 04:09:52;;;;;;;29.00;13.40;;;;;;;0.07;100.00;100751.29;105553;1297;24098;-74
2023/03/21 04:12:21;;;;;;;24.80;12.50;;;;;;;0.10;100.00;100748.09;105166;1297;25424;-71
2023/03/21 04:15:12;;;;;;;30.00;13.20;;;;;;;0.13;100.00;100747.36;105177;1297;22543;-71
2023/03/21 04:17:47;;;;;;;31.00;14.60;;;;;;;0.17;100.00;100753.18;104813;1296;1003481;-72
2023/03/21 04:20:16;;;;;;;32.30;14.60;;;;;;;0.19;100.00;100753.08;105510;1296;25325;-73
2023/03/21 04:23:06;;;;;;;30.30;13.50;;;;;;;0.22;100.00;100750.63;104516;1296;1003436;-72
2023/03/21 04:25:35;;;;;;;33.40;15.90;;;;;;;0.23;100.00;100755.88;105521;1296;24271;-74
2023/03/21 04:28:10;;;;;;;37.80;17.60;;;;;;;0.24;100.00;100754.23;107785;1296;22077;-71
2023/03/21 04:30:48;;;;;;;36.40;17.90;;;;;;;0.24;100.00;100748.90;107641;1296;23015;-72
2023/03/21 04:33:37;;;;;;;41.20;19.00;;;;;;;0.24;100.00;100745.16;106150;1296;25589;-75
2023/03/21 04:36:08;;;;;;;45.90;20.40;;;;;;;0.25;100.00;100743.52;105672;1296;26777;-72
2023/03/21 04:38:38;;;;;;;45.00;19.80;;;;;;;0.26;100.00;100744.70;105494;1296;22545;-72
2023/03/21 04:41:07;;;;;;;43.20;20.80;;;;;;;0.27;100.00;100750.33;105521;1296;25271;-72
2023/03/21 04:43:37;;;;;;;48.00;22.00;;;;;;;0.29;100.00;100751.80;105511;1296;25610;-72
2023/03/21 04:46:06;;;;;;;43.30;21.20;;;;;;;0.32;100.00;100747.88;105576;1296;25304;-73
2023/03/21 04:48:35;;;;;;;51.00;23.10;;;;;;;0.38;100.00;100746.16;105510;1296;22586;-72
2023/03/21 04:51:06;;;;;;;49.80;24.20;;;;;;;0.42;100.00;100748.04;105666;1296;25483;-72
2023/03/21 04:53:37;;;;;;;42.90;21.20;;;;;;;0.46;100.00;100745.67;105540;1296;26546;-73
2023/03/21 04:56:09;;;;;;;48.40;20.80;;;;;;;0.51;100.00;100747.88;105623;1296;25258;-73
2023/03/21 04:58:39;;;;;;;49.40;24.20;;;;;;;0.59;100.00;100747.44;104808;1296;1003157;-71
2023/03/21 05:01:08;;;;;;;51.60;23.00;;;;;;;0.68;100.00;100750.63;105603;1296;25312;-73
2023/03/21 05:03:39;;;;;;;54.30;25.00;;;;;;;0.76;100.00;100753.73;105350;1296;25439;-72
2023/03/21 05:06:08;;;;;;;46.30;22.40;;;;;;;0.83;100.00;100752.23;105585;1296;25379;-72
2023/03/21 05:08:37;;;;;;;46.90;23.60;;;;;;;0.91;100.00;100755.83;104532;1296;1003625;-73
2023/03/21 05:11:06;;;;;;;50.40;25.40;;;;;;;0.99;100.00;100758.01;105506;1296;26546;-73
2023/03/21 05:13:35;;;;;;;45.60;23.60;;;;;;;1.08;100.00;100762.46;105539;1296;26528;-71
2023/03/21 05:16:04;;;;;;;48.50;24.20;;;;;;;1.15;100.00;100766.48;105432;1296;23942;-74
2023/03/21 05:18:37;;;;;;;42.60;22.30;;;;;;;1.23;100.00;100766.52;105494;1293;25265;-73
2023/03/21 05:21:17;;;;;;;45.70;23.60;;;;;;;1.31;100.00;100769.21;105637;1296;25594;-72
2023/03/21 05:23:53;;;;;;;76.80;30.90;;;;;;;1.40;100.00;100775.59;105644;1296;22529;-72
2023/03/21 05:26:23;;;;;;;64.20;28.30;;;;;;;1.49;100.00;100775.77;105473;1296;22608;-73
2023/03/21 05:28:58;;;;;;;66.60;28.90;;;;;;;1.59;100.00;100774.45;105601;1296;25397;-73
2023/03/21 05:31:27;;;;;;;64.40;29.60;;;;;;;1.69;100.00;100776.46;105425;1296;24049;-74
2023/03/21 05:34:04;;;;;;;55.40;25.30;;;;;;;1.81;100.00;100775.05;105592;1296;25485;-73
2023/03/21 05:36:39;;;;;;;77.50;32.40;;;;;;;1.94;100.00;100782.54;105535;1296;25378;-73
2023/03/21 05:39:10;;;;;;;77.80;31.90;;;;;;;2.06;100.00;100784.45;105651;1296;25370;-73
2023/03/21 05:41:43;;;;;;;69.80;29.00;;;;;;;2.19;100.00;100790.77;105656;1296;22585;-73
2023/03/21 05:44:12;;;;;;;63.10;26.40;;;;;;;2.30;100.00;100792.73;105517;1296;25351;-72
2023/03/21 05:46:46;;;;;;;69.40;29.40;;;;;;;2.40;100.00;100791.34;105501;1296;25276;-72
2023/03/21 05:49:14;;;;;;;64.60;31.10;;;;;;;2.51;100.00;100793.84;105522;1296;22665;-72
2023/03/21 05:51:44;;;;;;;81.60;35.80;;;;;;;2.60;100.00;100793.59;105669;1296;22557;-72
2023/03/21 05:54:15;;;;;;;110.80;48.10;;;;;;;2.66;100.00;100792.14;105650;1296;25271;-73
2023/03/21 05:56:47;;;;;;;71.40;34.10;;;;;;;2.70;100.00;100790.09;105700;1296;22635;-72
2023/03/21 05:59:25;;;;;;;48.10;23.90;;;;;;;2.79;100.00;100790.75;105677;1296;25415;-72
2023/03/21 06:01:54;;;;;;;67.80;28.50;;;;;;;2.90;100.00;100797.16;105510;1296;22558;-73
2023/03/21 06:04:23;;;;;;;51.00;23.30;;;;;;;3.01;100.00;100805.30;105475;1296;25476;-73
2023/03/21 06:06:52;;;;;;;45.40;23.10;;;;;;;3.13;100.00;100804.34;105355;1296;183791;-70
2023/03/21 06:09:25;;;;;;;35.60;20.90;;;;;;;3.22;100.00;100798.02;105474;1296;25406;-71
2023/03/21 06:11:57;;;;;;;36.10;20.10;;;;;;;3.33;100.00;100798.83;105476;1296;22638;-73
2023/03/21 06:14:31;;;;;;;43.00;21.40;;;;;;;3.41;100.00;100797.07;105673;1296;22567;-73
2023/03/21 06:17:11;;;;;;;41.20;19.60;;;;;;;3.47;100.00;100794.70;105637;1296;26526;-72
2023/03/21 06:19:45;;;;;;;37.80;19.20;;;;;;;3.54;100.00;100795.23;105125;1298;22625;-74
2023/03/21 06:22:22;;;;;;;45.10;22.70;;;;;;;3.63;100.00;100799.79;105181;1298;22552;-73
2023/03/21 06:24:51;;;;;;;40.20;21.40;;;;;;;3.72;100.00;100804.88;105154;1298;25348;-72
2023/03/21 06:27:20;;;;;;;38.60;16.50;;;;;;;3.80;100.00;100800.92;105245;1298;25326;-73
2023/03/21 06:29:59;;;;;;;34.60;14.90;;;;;;;3.89;100.00;100795.29;105112;1298;25414;-71
2023/03/21 06:32:30;;;;;;;31.60;14.80;;;;;;;3.98;100.00;100795.86;105160;1298;26651;-72
2023/03/21 06:35:07;;;;;;;38.70;16.50;;;;;;;4.02;100.00;100792.59;105072;1298;25271;-70
2023/03/21 06:37:37;;;;;;;32.30;14.70;;;;;;;4.02;100.00;100794.39;105133;1298;22699;-69
2023/03/21 06:40:07;;;;;;;35.10;16.70;;;;;;;4.05;100.00;100791.48;105096;1298;25389;-68
2023/03/21 06:42:36;;;;;;;33.00;15.90;;;;;;;4.10;100.00;100787.70;105150;1298;25469;-73
2023/03/21 06:45:11;;;;;;;48.70;22.80;;;;;;;4.13;100.00;100785.75;105245;1295;25465;-69
2023/03/21 06:47:41;;;;;;;40.80;17.60;;;;;;;4.13;100.00;100780.58;105126;1297;25398;-69
2023/03/21 06:50:18;;;;;;;34.80;15.70;;;;;;;4.11;100.00;100774.09;105207;1297;25449;-68
2023/03/21 06:52:47;;;;;;;36.00;15.20;;;;;;;4.13;100.00;100774.17;105431;1297;25398;-70
2023/03/21 06:55:18;;;;;;;32.30;15.80;;;;;;;4.13;100.00;100769.65;105208;1297;25388;-69
2023/03/21 06:57:47;;;;;;;30.80;15.20;;;;;;;4.17;100.00;100772.40;105258;1299;22548;-70
2023/03/21 07:00:17;;;;;;;35.50;15.30;;;;;;;4.22;100.00;100772.42;105126;1299;25438;-70
2023/03/21 07:02:54;;;;;;;30.20;15.10;;;;;;;4.30;100.00;100771.42;106591;1298;22978;-67
2023/03/21 07:05:26;;;;;;;32.20;15.30;;;;;;;4.35;100.00;100774.70;106206;1298;25504;-75
2023/03/21 07:07:56;;;;;;;30.90;17.00;;;;;;;4.34;100.00;100772.98;105483;1298;22556;-80
2023/03/21 07:10:31;;;;;;;29.00;14.20;;;;;;;4.35;100.00;100768.98;105476;1298;25459;-79
2023/03/21 07:13:05;;;;;;;32.10;15.80;;;;;;;4.36;100.00;100769.92;105772;1298;23964;-80
2023/03/21 07:15:42;;;;;;;30.20;13.90;;;;;;;4.36;100.00;100765.67;105603;1298;24312;-78
2023/03/21 07:18:13;;;;;;;27.00;14.40;;;;;;;4.37;100.00;100764.85;105266;1293;25475;-77
2023/03/21 07:20:47;;;;;;;27.90;14.70;;;;;;;4.38;100.00;100765.01;105570;1296;23191;-74
2023/03/21 07:23:20;;;;;;;32.00;15.00;;;;;;;4.40;100.00;100763.40;105458;1296;24223;-77
2023/03/21 07:25:54;;;;;;;31.00;15.90;;;;;;;4.40;100.00;100765.02;106748;1296;25470;-72
2023/03/21 07:28:30;;;;;;;34.10;18.00;;;;;;;4.37;100.00;100763.80;105571;1296;24651;-75
2023/03/21 07:31:05;;;;;;;33.20;16.20;;;;;;;4.37;100.00;100768.80;106167;1296;23798;-75
2023/03/21 07:33:35;;;;;;;28.10;15.40;;;;;;;4.36;100.00;100770.30;106307;1296;25324;-79
2023/03/21 07:36:11;;;;;;;32.30;16.30;;;;;;;4.36;100.00;100767.80;104355;1296;1003679;-75
2023/03/21 07:38:43;;;;;;;34.30;16.90;;;;;;;4.36;100.00;100765.33;106634;1296;25347;-75
2023/03/21 07:41:12;;;;;;;28.20;17.00;;;;;;;4.36;100.00;100773.88;105399;1296;23028;-75
2023/03/21 07:43:41;;;;;;;28.60;14.80;;;;;;;4.37;100.00;100767.89;105977;1296;22584;-76
2023/03/21 07:46:12;;;;;;;28.30;14.80;;;;;;;4.39;100.00;100768.31;105965;1297;22989;-77
2023/03/21 07:48:41;;;;;;;27.40;13.10;;;;;;;4.44;100.00;100771.52;105602;1296;26659;-75
2023/03/21 07:51:10;;;;;;;29.70;12.20;;;;;;;4.50;100.00;100770.33;105632;1297;25458;-80
2023/03/21 07:53:40;;;;;;;26.10;13.40;;;;;;;4.58;100.00;100775.65;105470;1296;25276;-76
2023/03/21 07:56:09;;;;;;;25.70;13.40;;;;;;;4.66;100.00;100776.82;105478;1297;25493;-76
2023/03/21 07:58:42;;;;;;;31.80;14.30;;;;;;;4.75;100.00;100785.85;105952;1297;23953;-75
2023/03/21 08:01:11;;;;;;;30.90;14.30;;;;;;;4.81;100.00;100790.05;106099;1296;22578;-76
2023/03/21 08:03:40;;;;;;;32.00;15.40;;;;;;;4.84;100.00;100793.17;105790;1296;22806;-79
2023/03/21 08:06:09;;;;;;;28.10;15.10;;;;;;;4.90;100.00;100788.45;105744;1296;25442;-78
2023/03/21 08:08:37;;;;;;;31.40;13.50;;;;;;;4.97;100.00;100782.91;105744;1296;25451;-75
2023/03/21 08:11:06;;;;;;;26.40;13.50;;;;;;;5.03;100.00;100786.59;105405;1297;22541;-76
2023/03/21 08:13:37;;;;;;;36.60;16.10;;;;;;;5.08;100.00;100782.46;105733;1296;26711;-75
2023/03/21 08:16:07;;;;;;;33.40;17.40;;;;;;;5.11;100.00;100782.38;105722;1297;23856;-77
2023/03/21 08:18:43;;;;;;;33.40;15.00;;;;;;;5.13;100.00;100773.77;105641;1297;25444;-75
2023/03/21 08:21:12;;;;;;;35.20;19.00;;;;;;;5.17;100.00;100778.53;105689;1296;22549;-76
2023/03/21 08:23:41;;;;;;;29.80;15.70;;;;;;;5.19;100.00;100781.40;105845;1296;25644;-76
2023/03/21 08:26:10;;;;;;;32.80;17.40;;;;;;;5.22;100.00;100778.48;105693;1296;25946;-77
2023/03/21 08:28:40;;;;;;;38.10;16.70;;;;;;;5.25;100.00;100777.70;105227;1296;1003337;-75
2023/03/21 08:31:10;;;;;;;40.60;18.40;;;;;;;5.29;100.00;100778.89;105726;1296;25447;-75
2023/03/21 08:33:39;;;;;;;38.00;17.30;;;;;;;5.31;100.00;100778.17;105484;1296;22549;-76
2023/03/21 08:36:08;;;;;;;37.80;15.90;;;;;;;5.38;100.00;100778.55;105573;1296;25496;-77
2023/03/21 08:38:38;;;;;;;31.20;16.10;;;;;;;5.45;100.00;100772.23;105606;1290;25399;-77
2023/03/21 08:41:12;;;;;;;25.90;14.90;;;;;;;5.55;100.00;100769.34;105552;1291;25378;-72
2023/03/21 08:43:40;;;;;;;31.20;14.80;;;;;;;5.64;100.00;100772.55;105534;1296;25277;-69
2023/03/21 08:46:12;;;;;;;31.30;16.30;;;;;;;5.67;100.00;100767.80;105636;1292;25197;-70
2023/03/21 08:48:41;;;;;;;35.70;16.00;;;;;;;5.66;100.00;100764.52;105087;1290;22668;-69
2023/03/21 08:51:10;;;;;;;36.30;14.50;;;;;;;5.70;100.00;100762.05;105344;1296;25602;-76
2023/03/21 08:53:40;;;;;;;28.40;12.70;;;;;;;5.77;100.00;100763.68;105348;1296;26726;-76
2023/03/21 08:56:09;;;;;;;28.80;14.90;;;;;;;5.85;100.00;100760.87;105442;1294;24399;-79
2023/03/21 08:58:38;;;;;;;35.70;18.40;;;;;;;5.94;100.00;100764.27;106139;1292;22578;-81
2023/03/21 09:01:10;;;;;;;25.50;13.70;;;;;;;6.05;100.00;100760.21;105638;1296;22539;-80
2023/03/21 09:03:39;;;;;;;33.20;14.70;;;;;;;6.14;100.00;100762.67;105881;1280;23233;-79
2023/03/21 09:06:13;;;;;;;35.10;14.50;;;;;;;6.22;100.00;100767.05;105860;1288;25367;-78
2023/03/21 09:08:45;;;;;;;27.50;14.30;;;;;;;6.25;100.00;100756.26;105547;1296;26622;-81
2023/03/21 09:11:15;;;;;;;29.80;13.40;;;;;;;6.28;100.00;100761.38;105320;1293;22546;-75
2023/03/21 09:13:45;;;;;;;47.40;16.60;;;;;;;6.32;100.00;100756.05;105570;1295;24281;-73
2023/03/21 09:16:14;;;;;;;24.40;12.10;;;;;;;6.40;100.00;100755.05;105481;1290;26530;-73
2023/03/21 09:18:48;;;;;;;29.80;13.00;;;;;;;6.50;100.00;100752.40;105668;1296;22792;-73
2023/03/21 09:21:19;;;;;;;30.60;15.90;;;;;;;6.57;100.00;100748.99;104534;1296;1003530;-75
2023/03/21 09:23:51;;;;;;;36.50;15.30;;;;;;;6.62;100.00;100749.41;105482;1290;21771;-71
2023/03/21 09:26:20;;;;;;;28.40;14.30;;;;;;;6.73;100.00;100749.97;105720;1296;29352;-79
2023/03/21 09:28:50;;;;;;;29.30;13.70;;;;;;;6.82;100.00;100746.54;105265;1292;24260;-73
2023/03/21 09:31:22;;;;;;;29.90;13.20;;;;;;;6.96;100.00;100750.73;105528;1290;25297;-71
2023/03/21 09:33:56;;;;;;;27.00;12.60;;;;;;;7.12;100.00;100747.40;105480;1290;25316;-73
2023/03/21 09:36:26;;;;;;;28.10;12.90;;;;;;;7.29;100.00;100747.40;105549;1296;22599;-72
2023/03/21 09:38:56;;;;;;;27.50;13.70;;;;;;;7.48;100.00;100753.48;105585;1296;24425;-75
2023/03/21 09:41:26;;;;;;;31.90;14.10;;;;;;;7.65;100.00;100751.95;105631;1296;22591;-76
2023/03/21 09:43:58;;;;;;;30.10;13.60;;;;;;;7.85;100.00;100749.88;105462;1296;25450;-72
2023/03/21 09:46:35;;;;;;;28.30;13.60;;;;;;;8.12;100.00;100750.44;105538;1296;25410;-76
2023/03/21 09:49:06;;;;;;;28.00;13.50;;;;;;;8.33;100.00;100747.33;105701;1296;25502;-75
2023/03/21 09:51:40;;;;;;;39.00;16.30;;;;;;;8.45;100.00;100743.98;105721;1289;26547;-78
2023/03/21 09:54:34;;;;;;;29.70;14.10;;;;;;;8.56;100.00;100737.96;105524;1296;25472;-75
2023/03/21 09:57:22;;;;;;;29.50;13.40;;;;;;;8.63;100.00;100734.55;105502;1294;25904;-76
2023/03/21 09:59:52;;;;;;;24.50;12.30;;;;;;;8.65;100.00;100735.34;105755;1296;25952;-75
2023/03/21 10:02:46;;;;;;;26.10;13.00;;;;;;;8.62;100.00;100732.32;106123;1296;22647;-71
2023/03/21 10:05:21;;;;;;;33.90;14.50;;;;;;;8.53;100.00;100723.79;106057;1293;25491;-72
2023/03/21 10:07:54;;;;;;;;;;;;;;;8.48;100.00;100724.59;105810;1294;22537;-74
2023/03/21 10:10:27;;;;;;;25.90;12.00;;;;;;;8.51;100.00;100725.39;105674;1290;26520;-73
2023/03/21 10:13:35;;;;;;;30.30;14.80;;;;;;;8.57;100.00;100718.41;105568;1296;24310;-76
2023/03/21 10:16:14;;;;;;;24.80;11.90;;;;;;;8.66;100.00;100719.20;105639;1296;25438;-76
2023/03/21 10:18:43;;;;;;;26.90;12.90;;;;;;;8.81;100.00;100719.48;105592;1294;22545;-72
2023/03/21 10:21:21;;;;;;;30.00;14.60;;;;;;;8.98;100.00;100713.05;105607;1296;25381;-71
2023/03/21 10:24:12;;;;;;;27.80;12.20;;;;;;;9.19;100.00;100702.92;105530;1296;25647;-71
2023/03/21 10:26:41;;;;;;;25.50;12.00;;;;;;;9.41;100.00;100701.02;105562;1296;25378;-75
2023/03/21 10:29:11;;;;;;;23.00;11.30;;;;;;;9.61;100.00;100692.61;105132;1296;24256;-72
2023/03/21 10:31:40;;;;;;;23.50;11.20;;;;;;;9.85;100.00;100687.95;105572;1296;25567;-74
2023/03/21 10:34:27;;;;;;;22.90;9.80;;;;;;;10.08;100.00;100688.40;105535;1296;25397;-76
2023/03/21 10:36:56;;;;;;;20.20;9.60;;;;;;;10.29;100.00;100680.16;105564;1296;23891;-70
2023/03/21 10:39:33;;;;;;;25.00;10.50;;;;;;;10.46;100.00;100673.95;105631;1296;22593;-70
2023/03/21 10:42:02;;;;;;;24.60;10.40;;;;;;;10.54;100.00;100666.02;105519;1296;25271;-72
2023/03/21 10:44:33;;;;;;;24.30;10.00;;;;;;;10.54;100.00;100659.13;105552;1296;25059;-74
2023/03/21 10:47:06;;;;;;;27.40;11.80;;;;;;;10.61;100.00;100643.10;105613;1296;22556;-74
2023/03/21 10:49:36;;;;;;;25.80;10.90;;;;;;;10.71;100.00;100631.27;105658;1296;22578;-75
2023/03/21 10:52:26;;;;;;;22.40;10.10;;;;;;;10.79;100.00;100601.91;105526;1296;27172;-74
2023/03/21 10:55:15;;;;;;;24.60;11.00;;;;;;;10.78;100.00;100576.41;105479;1289;25378;-74
2023/03/21 10:57:48;;;;;;;24.70;12.20;;;;;;;10.77;100.00;100554.91;105570;1296;25523;-75
2023/03/21 11:00:21;;;;;;;27.70;12.90;;;;;;;10.82;100.00;100544.14;105476;1297;26747;-75
2023/03/21 11:03:04;;;;;;;25.30;12.10;;;;;;;10.83;100.00;100545.77;105973;1296;24405;-76
2023/03/21 11:05:38;;;;;;;28.50;11.20;;;;;;;10.90;100.00;100543.81;105689;1296;22693;-73
2023/03/21 11:08:11;;;;;;;;;;;;;;;10.98;100.00;100537.40;105767;1296;22527;-71
2023/03/21 11:11:02;;;;;;;22.60;9.60;;;;;;;11.00;100.00;100536.26;105685;1296;24311;-73
2023/03/21 11:13:39;;;;;;;20.30;9.50;;;;;;;11.05;100.00;100534.15;105595;1289;26540;-71
2023/03/21 11:16:18;;;;;;;21.20;9.40;;;;;;;11.20;100.00;100534.89;105653;1293;22555;-72
2023/03/21 11:18:51;;;;;;;22.30;9.70;;;;;;;11.41;100.00;100527.44;105337;1296;22806;-74
2023/03/21 11:21:21;;;;;;;;;;;;;;;11.62;100.00;100524.87;105516;1292;22532;-73
2023/03/21 11:23:51;;;;;;;17.70;8.50;;;;;;;11.86;100.00;100516.07;105330;1296;22549;-74
2023/03/21 11:26:29;;;;;;;21.90;9.20;;;;;;;12.01;100.00;100520.44;105405;1296;22668;-76
2023/03/21 11:29:00;;;;;;;20.20;8.80;;;;;;;12.17;100.00;100523.53;105671;1286;26065;-73
2023/03/21 11:31:38;;;;;;;21.10;9.70;;;;;;;12.39;100.00;100519.14;105384;1295;24259;-72
2023/03/21 11:34:07;;;;;;;18.80;8.50;;;;;;;12.50;100.00;100522.95;105704;1289;25375;-76